createdAt,value
2018-08-07T00:04:42.998Z,4.73
2018-08-07T00:09:36.333Z,4.10
2018-08-07T00:14:29.747Z,6.10
2018-08-07T00:19:23.103Z,4.07
2018-08-07T00:24:16.435Z,5.20
2018-08-07T00:29:09.881Z,8.20
2018-08-07T00:34:03.310Z,4.90
2018-08-07T00:38:56.666Z,6.28
2018-08-07T00:43:50.023Z,5.13
2018-08-07T00:48:43.398Z,5.40
2018-08-07T00:53:36.791Z,4.20
2018-08-07T00:58:30.149Z,3.83
2018-08-07T01:03:23.516Z,3.92
2018-08-07T01:08:16.947Z,5.70
2018-08-07T01:13:10.299Z,4.12
2018-08-07T01:18:04.661Z,4.57
2018-08-07T01:22:58.079Z,5.47
2018-08-07T01:27:51.513Z,4.30
2018-08-07T01:32:44.863Z,4.27
2018-08-07T01:37:38.795Z,5.10
2018-08-07T01:42:32.134Z,6.93
2018-08-07T01:47:25.505Z,6.00
2018-08-07T01:52:19.382Z,5.40
2018-08-07T01:57:12.701Z,4.90
2018-08-07T02:02:06.104Z,6.45
2018-08-07T02:06:59.521Z,7.63
2018-08-07T02:11:53.064Z,6.27
2018-08-07T02:16:46.397Z,4.97
2018-08-07T02:21:39.613Z,4.90
2018-08-07T02:26:32.960Z,5.10
2018-08-07T02:31:26.256Z,8.50
2018-08-07T02:36:19.608Z,7.17
2018-08-07T02:41:12.869Z,7.53
2018-08-07T02:46:06.378Z,7.27
2018-08-07T02:51:00.268Z,6.67
2018-08-07T02:55:54.200Z,6.10
2018-08-07T03:00:48.509Z,7.13
2018-08-07T03:05:41.964Z,5.90
2018-08-07T03:10:36.136Z,5.03
2018-08-07T03:15:30.756Z,7.03
2018-08-07T03:20:25.592Z,9.80
2018-08-07T03:25:19.861Z,9.13
2018-08-07T03:30:15.977Z,7.60
2018-08-07T03:35:12.762Z,6.87
2018-08-07T03:40:09.920Z,10.57
2018-08-07T03:45:04.822Z,7.17
2018-08-07T03:49:58.163Z,7.60
2018-08-07T03:54:52.043Z,6.65
2018-08-07T03:59:45.506Z,7.77
2018-08-07T04:04:38.891Z,6.50
2018-08-07T04:09:32.221Z,6.33
2018-08-07T04:14:25.667Z,5.47
2018-08-07T04:19:19.023Z,8.53
2018-08-07T04:24:12.342Z,7.73
2018-08-07T04:29:06.757Z,5.53
2018-08-07T04:34:00.070Z,7.03
2018-08-07T04:38:53.422Z,6.47
2018-08-07T04:43:46.813Z,8.67
2018-08-07T04:48:40.498Z,5.03
2018-08-07T04:53:33.813Z,12.10
2018-08-07T04:58:27.137Z,7.07
2018-08-07T05:03:20.433Z,6.37
2018-08-07T05:08:13.745Z,5.42
2018-08-07T05:13:07.130Z,6.47
2018-08-07T05:18:00.332Z,6.07
2018-08-07T05:22:53.651Z,5.60
2018-08-07T05:27:46.981Z,6.00
2018-08-07T05:32:40.428Z,5.47
2018-08-07T05:37:33.888Z,9.23
2018-08-07T05:42:27.328Z,8.27
2018-08-07T05:47:20.729Z,8.00
2018-08-07T05:52:14.103Z,7.93
2018-08-07T05:57:07.500Z,6.78
2018-08-07T06:02:00.800Z,6.67
2018-08-07T06:06:54.010Z,7.23
2018-08-07T06:11:48.345Z,5.80
2018-08-07T06:16:41.742Z,3.93
2018-08-07T06:21:36.128Z,4.55
2018-08-07T06:26:29.486Z,6.53
2018-08-07T06:31:23.294Z,5.05
2018-08-07T06:36:17.059Z,5.33
2018-08-07T06:41:10.628Z,5.65
2018-08-07T06:46:04.049Z,5.20
2018-08-07T06:50:57.847Z,7.00
2018-08-07T06:55:51.372Z,5.10
2018-08-07T07:00:44.786Z,4.73
2018-08-07T07:05:38.462Z,5.87
2018-08-07T07:10:32.253Z,9.10
2018-08-07T07:15:25.734Z,6.10
2018-08-07T07:20:19.661Z,7.55
2018-08-07T07:25:13.052Z,5.03
2018-08-07T07:30:13.940Z,9.23
2018-08-07T07:35:07.618Z,6.37
2018-08-07T07:40:01.650Z,8.73
2018-08-07T07:44:55.049Z,4.00
2018-08-07T07:54:46.765Z,4.90
2018-08-07T07:59:40.201Z,6.03
2018-08-07T08:04:34.262Z,4.07
2018-08-07T08:09:27.835Z,8.83
2018-08-07T08:14:21.484Z,7.30
2018-08-07T08:19:14.893Z,4.90
2018-08-07T08:24:11.652Z,5.03
2018-08-07T08:29:08.012Z,5.10
2018-08-07T08:34:01.422Z,4.43
2018-08-07T08:38:54.865Z,4.83
2018-08-07T08:43:48.249Z,7.33
2018-08-07T08:48:41.821Z,6.20
2018-08-07T08:53:35.178Z,9.30
2018-08-07T08:58:28.613Z,3.80
2018-08-07T09:03:21.959Z,5.03
2018-08-07T09:08:15.405Z,6.43
2018-08-07T09:13:08.772Z,4.00
2018-08-07T09:18:03.203Z,4.33
2018-08-07T09:22:58.163Z,5.93
2018-08-07T09:27:51.668Z,6.17
2018-08-07T09:32:46.224Z,4.10
2018-08-07T09:37:41.484Z,3.63
2018-08-07T09:42:35.008Z,2.70
2018-08-07T09:47:28.574Z,5.77
2018-08-07T09:52:22.433Z,5.87
2018-08-07T09:57:16.062Z,4.58
2018-08-07T10:02:15.098Z,3.00
2018-08-07T10:07:08.518Z,3.10
2018-08-07T10:12:01.987Z,2.92
2018-08-07T10:16:55.440Z,5.47
2018-08-07T10:21:48.845Z,3.70
2018-08-07T10:26:42.196Z,2.90
2018-08-07T10:31:35.451Z,3.77
2018-08-07T10:36:28.805Z,5.97
2018-08-07T10:41:22.193Z,2.90
2018-08-07T10:46:15.638Z,3.02
2018-08-07T10:51:09.037Z,5.73
2018-08-07T10:56:02.439Z,3.98
2018-08-07T11:00:55.846Z,4.20
2018-08-07T11:05:49.174Z,3.67
2018-08-07T11:10:42.506Z,4.03
2018-08-07T11:15:35.951Z,3.33
2018-08-07T11:20:29.438Z,6.45
2018-08-07T11:25:24.308Z,2.57
2018-08-07T11:30:20.198Z,3.43
2018-08-07T11:35:13.815Z,4.80
2018-08-07T11:40:13.030Z,6.73
2018-08-07T11:45:10.070Z,2.80
2018-08-07T11:50:06.077Z,6.57
2018-08-07T11:54:59.464Z,5.03
2018-08-07T11:59:52.853Z,4.28
2018-08-07T12:04:47.004Z,3.33
2018-08-07T12:09:40.428Z,7.30
2018-08-07T12:14:33.725Z,6.30
2018-08-07T12:19:27.128Z,5.67
2018-08-07T12:24:20.549Z,5.27
2018-08-07T12:29:13.944Z,7.45
2018-08-07T12:34:07.206Z,5.87
2018-08-07T12:39:00.588Z,5.78
2018-08-07T12:44:00.835Z,6.77
2018-08-07T12:48:54.080Z,4.40
2018-08-07T12:54:16.750Z,7.92
2018-08-07T12:59:10.144Z,4.97
2018-08-07T13:04:03.528Z,8.83
2018-08-07T13:08:56.912Z,4.58
2018-08-07T13:13:50.323Z,5.00
2018-08-07T13:18:43.726Z,4.92
2018-08-07T13:23:37.101Z,5.78
2018-08-07T13:28:30.542Z,10.53
2018-08-07T13:33:23.932Z,4.70
2018-08-07T13:38:17.337Z,5.10
2018-08-07T13:43:10.788Z,3.35
2018-08-07T13:48:05.014Z,6.97
2018-08-07T13:52:58.461Z,5.08
2018-08-07T13:57:51.905Z,5.50
2018-08-07T14:02:46.176Z,5.10
2018-08-07T14:07:39.657Z,3.83
2018-08-07T14:12:33.050Z,5.60
2018-08-07T14:17:26.445Z,4.67
2018-08-07T14:22:19.927Z,7.78
2018-08-07T14:27:13.408Z,3.45
2018-08-07T14:32:07.264Z,3.65
2018-08-07T14:37:00.668Z,6.83
2018-08-07T14:41:54.030Z,2.60
2018-08-07T14:46:47.456Z,2.37
2018-08-07T14:51:40.924Z,3.47
2018-08-07T14:56:34.330Z,5.03
2018-08-07T15:01:27.816Z,2.70
2018-08-07T15:06:21.271Z,5.10
2018-08-07T15:11:14.637Z,4.50
2018-08-07T15:16:08.028Z,2.98
2018-08-07T15:21:01.410Z,3.17
2018-08-07T15:25:54.798Z,4.97
2018-08-07T15:30:48.251Z,6.22
2018-08-07T15:35:41.621Z,5.00
2018-08-07T15:40:35.100Z,2.57
2018-08-07T15:45:28.556Z,6.22
2018-08-07T15:50:22.424Z,6.22
2018-08-07T15:55:18.224Z,6.40
2018-08-07T16:00:18.892Z,4.13
2018-08-07T16:05:12.326Z,5.25
2018-08-07T16:10:09.540Z,7.60
2018-08-07T16:15:03.048Z,4.35
2018-08-07T16:19:56.477Z,5.70
2018-08-07T16:24:49.883Z,7.33
2018-08-07T16:29:43.338Z,6.35
2018-08-07T16:34:36.597Z,6.35
2018-08-07T16:39:29.975Z,4.80
2018-08-07T16:44:23.400Z,6.03
2018-08-07T16:49:16.819Z,5.20
2018-08-07T16:54:10.365Z,5.65
2018-08-07T16:59:04.191Z,9.18
2018-08-07T17:03:57.646Z,8.25
2018-08-07T17:08:51.035Z,6.58
2018-08-07T17:13:46.868Z,7.72
2018-08-07T17:19:08.710Z,7.70
2018-08-07T17:24:14.555Z,4.08
2018-08-07T17:29:08.202Z,7.33
2018-08-07T17:34:06.531Z,6.03
2018-08-07T17:39:06.657Z,5.90
2018-08-07T17:44:00.789Z,6.00
2018-08-07T17:48:54.292Z,5.85
2018-08-07T17:53:57.033Z,4.08
2018-08-07T17:58:59.488Z,6.35
2018-08-07T18:03:57.008Z,8.90
2018-08-07T18:08:51.486Z,8.53
2018-08-07T18:13:44.984Z,8.00
2018-08-07T18:18:38.495Z,5.72
2018-08-07T18:23:31.881Z,7.80
2018-08-07T18:28:25.491Z,5.85
2018-08-07T18:33:18.878Z,5.95
2018-08-07T18:38:12.410Z,7.60
2018-08-07T18:43:05.956Z,7.45
2018-08-07T18:47:59.372Z,7.45
2018-08-07T18:52:52.841Z,7.03
2018-08-07T18:57:47.633Z,8.55
2018-08-07T19:02:41.044Z,6.10
2018-08-07T19:07:34.384Z,7.58
2018-08-07T19:12:27.852Z,5.90
2018-08-07T19:17:21.240Z,9.45
2018-08-07T19:22:14.619Z,9.30
2018-08-07T19:27:08.019Z,6.12
2018-08-07T19:32:01.394Z,13.93
2018-08-07T19:36:54.752Z,7.62
2018-08-07T19:41:48.156Z,8.63
2018-08-07T19:46:48.229Z,6.92
2018-08-07T19:51:41.613Z,14.40
2018-08-07T19:56:35.093Z,10.65
2018-08-07T20:01:28.508Z,9.80
2018-08-07T20:06:21.912Z,10.70
2018-08-07T20:11:15.290Z,9.10
2018-08-07T20:16:08.802Z,9.78
2018-08-07T20:21:02.158Z,15.10
2018-08-07T20:25:57.863Z,10.45
2018-08-07T20:30:55.753Z,15.55
2018-08-07T20:35:51.915Z,13.15
2018-08-07T20:40:48.099Z,11.78
2018-08-07T20:45:44.447Z,9.85
2018-08-07T20:50:39.053Z,15.18
2018-08-07T20:55:32.452Z,10.93
2018-08-07T21:00:27.141Z,11.53
2018-08-07T21:05:21.041Z,10.28
2018-08-07T21:10:18.294Z,15.63
2018-08-07T21:15:13.610Z,11.80
2018-08-07T21:20:10.134Z,12.82
2018-08-07T21:25:08.092Z,12.73
2018-08-07T21:30:01.449Z,16.20
2018-08-07T21:34:55.071Z,9.20
2018-08-07T21:39:48.457Z,8.45
2018-08-07T21:44:41.876Z,10.65
2018-08-07T21:49:35.278Z,8.85
2018-08-07T21:54:28.666Z,9.80
2018-08-07T21:59:27.815Z,12.98
2018-08-07T22:04:21.263Z,13.48
2018-08-07T22:09:14.618Z,7.80
2018-08-07T22:14:08.098Z,9.05
2018-08-07T22:19:01.544Z,11.80
2018-08-07T22:23:55.110Z,11.83
2018-08-07T22:28:48.544Z,7.33
2018-08-07T22:33:41.961Z,7.47
2018-08-07T22:38:35.340Z,9.55
2018-08-07T22:43:28.785Z,7.80
2018-08-07T22:48:22.228Z,11.50
2018-08-07T22:53:15.614Z,6.75
2018-08-07T22:58:09.054Z,9.45
2018-08-07T23:03:02.430Z,10.60
2018-08-07T23:07:55.893Z,14.00
2018-08-07T23:12:49.276Z,10.72
2018-08-07T23:17:43.091Z,8.55
2018-08-07T23:22:36.572Z,10.20
2018-08-07T23:27:29.938Z,6.42
2018-08-07T23:32:23.284Z,13.60
2018-08-07T23:37:16.666Z,8.30
2018-08-07T23:42:10.062Z,8.83
2018-08-07T23:47:03.523Z,7.37
2018-08-07T23:51:56.934Z,10.48
2018-08-07T23:56:50.289Z,9.50
